sensor_id;sensor_type;location;lat;lon;timestamp;P1;durP1;ratioP1;P2;durP2;ratioP2
6564;SDS011;3316;44.118;27.258;2023-07-31T00:00:50;2.85;;;2.35;;
6564;SDS011;3316;44.118;27.258;2023-07-31T00:03:16;3.30;;;2.33;;
6564;SDS011;3316;44.118;27.258;2023-07-31T00:05:41;3.20;;;1.98;;
6564;SDS011;3316;44.118;27.258;2023-07-31T00:08:07;3.13;;;2.08;;
6564;SDS011;3316;44.118;27.258;2023-07-31T00:10:32;2.83;;;2.05;;
6564;SDS011;3316;44.118;27.258;2023-07-31T00:12:58;3.55;;;2.17;;
6564;SDS011;3316;44.118;27.258;2023-07-31T00:15:24;2.42;;;2.13;;
6564;SDS011;3316;44.118;27.258;2023-07-31T00:17:49;3.83;;;2.10;;
6564;SDS011;3316;44.118;27.258;2023-07-31T00:20:15;3.83;;;2.10;;
6564;SDS011;3316;44.118;27.258;2023-07-31T00:22:40;3.20;;;2.00;;
6564;SDS011;3316;44.118;27.258;2023-07-31T00:25:06;2.22;;;1.90;;
6564;SDS011;3316;44.118;27.258;2023-07-31T00:27:32;3.15;;;2.13;;
6564;SDS011;3316;44.118;27.258;2023-07-31T00:29:57;3.97;;;1.98;;
6564;SDS011;3316;44.118;27.258;2023-07-31T00:32:23;5.50;;;2.20;;
6564;SDS011;3316;44.118;27.258;2023-07-31T00:34:48;3.22;;;2.15;;
6564;SDS011;3316;44.118;27.258;2023-07-31T00:37:14;3.75;;;1.83;;
6564;SDS011;3316;44.118;27.258;2023-07-31T00:39:40;2.95;;;2.05;;
6564;SDS011;3316;44.118;27.258;2023-07-31T00:42:06;3.83;;;1.85;;
6564;SDS011;3316;44.118;27.258;2023-07-31T00:44:32;2.83;;;1.88;;
6564;SDS011;3316;44.118;27.258;2023-07-31T00:46:57;2.58;;;1.77;;
6564;SDS011;3316;44.118;27.258;2023-07-31T00:49:24;3.20;;;2.40;;
6564;SDS011;3316;44.118;27.258;2023-07-31T00:51:50;1.92;;;1.73;;
6564;SDS011;3316;44.118;27.258;2023-07-31T00:54:15;2.45;;;1.92;;
6564;SDS011;3316;44.118;27.258;2023-07-31T00:56:41;2.42;;;1.88;;
6564;SDS011;3316;44.118;27.258;2023-07-31T00:59:09;2.75;;;2.00;;
6564;SDS011;3316;44.118;27.258;2023-07-31T01:01:35;3.65;;;1.92;;
6564;SDS011;3316;44.118;27.258;2023-07-31T01:04:00;3.83;;;2.00;;
6564;SDS011;3316;44.118;27.258;2023-07-31T01:12:09;3.25;;;2.05;;
6564;SDS011;3316;44.118;27.258;2023-07-31T01:14:39;2.80;;;2.10;;
6564;SDS011;3316;44.118;27.258;2023-07-31T01:17:05;2.25;;;2.05;;
6564;SDS011;3316;44.118;27.258;2023-07-31T01:19:30;1.60;;;1.50;;
6564;SDS011;3316;44.118;27.258;2023-07-31T01:24:55;3.40;;;2.17;;
6564;SDS011;3316;44.118;27.258;2023-07-31T01:27:34;2.47;;;1.70;;
6564;SDS011;3316;44.118;27.258;2023-07-31T01:30:05;5.07;;;2.17;;
6564;SDS011;3316;44.118;27.258;2023-07-31T01:32:39;3.50;;;2.10;;
6564;SDS011;3316;44.118;27.258;2023-07-31T01:35:06;2.58;;;2.33;;
6564;SDS011;3316;44.118;27.258;2023-07-31T01:37:32;3.78;;;2.20;;
6564;SDS011;3316;44.118;27.258;2023-07-31T01:39:57;4.43;;;2.92;;
6564;SDS011;3316;44.118;27.258;2023-07-31T01:42:23;4.63;;;3.22;;
6564;SDS011;3316;44.118;27.258;2023-07-31T01:44:48;3.10;;;2.80;;
6564;SDS011;3316;44.118;27.258;2023-07-31T01:47:14;4.78;;;3.13;;
6564;SDS011;3316;44.118;27.258;2023-07-31T01:49:39;5.38;;;3.15;;
6564;SDS011;3316;44.118;27.258;2023-07-31T01:52:05;5.43;;;3.03;;
6564;SDS011;3316;44.118;27.258;2023-07-31T01:54:31;7.18;;;3.80;;
6564;SDS011;3316;44.118;27.258;2023-07-31T01:56:56;6.45;;;3.70;;
6564;SDS011;3316;44.118;27.258;2023-07-31T01:59:21;5.03;;;4.30;;
6564;SDS011;3316;44.118;27.258;2023-07-31T02:01:47;5.55;;;4.40;;
6564;SDS011;3316;44.118;27.258;2023-07-31T02:04:12;5.25;;;4.68;;
6564;SDS011;3316;44.118;27.258;2023-07-31T02:06:38;5.13;;;4.57;;
6564;SDS011;3316;44.118;27.258;2023-07-31T02:09:04;6.68;;;4.80;;
6564;SDS011;3316;44.118;27.258;2023-07-31T02:11:29;7.60;;;6.03;;
6564;SDS011;3316;44.118;27.258;2023-07-31T02:13:55;6.85;;;5.53;;
6564;SDS011;3316;44.118;27.258;2023-07-31T02:16:20;10.85;;;5.50;;
6564;SDS011;3316;44.118;27.258;2023-07-31T02:18:46;6.43;;;5.82;;
6564;SDS011;3316;44.118;27.258;2023-07-31T02:21:11;16.40;;;5.97;;
6564;SDS011;3316;44.118;27.258;2023-07-31T02:23:36;6.22;;;5.57;;
6564;SDS011;3316;44.118;27.258;2023-07-31T02:26:02;7.70;;;5.88;;
6564;SDS011;3316;44.118;27.258;2023-07-31T02:28:28;7.55;;;5.97;;
6564;SDS011;3316;44.118;27.258;2023-07-31T02:30:54;9.52;;;5.85;;
6564;SDS011;3316;44.118;27.258;2023-07-31T02:33:19;6.90;;;5.90;;
6564;SDS011;3316;44.118;27.258;2023-07-31T02:35:45;6.53;;;5.47;;
6564;SDS011;3316;44.118;27.258;2023-07-31T02:38:10;6.90;;;6.13;;
6564;SDS011;3316;44.118;27.258;2023-07-31T02:40:35;7.75;;;5.95;;
6564;SDS011;3316;44.118;27.258;2023-07-31T02:43:01;6.75;;;6.00;;
6564;SDS011;3316;44.118;27.258;2023-07-31T02:45:26;6.85;;;6.15;;
6564;SDS011;3316;44.118;27.258;2023-07-31T02:47:52;8.48;;;6.65;;
6564;SDS011;3316;44.118;27.258;2023-07-31T02:50:17;8.23;;;6.40;;
6564;SDS011;3316;44.118;27.258;2023-07-31T02:52:43;8.00;;;6.10;;
6564;SDS011;3316;44.118;27.258;2023-07-31T02:55:08;9.20;;;6.22;;
6564;SDS011;3316;44.118;27.258;2023-07-31T02:57:34;8.65;;;6.32;;
6564;SDS011;3316;44.118;27.258;2023-07-31T02:59:59;8.23;;;6.70;;
6564;SDS011;3316;44.118;27.258;2023-07-31T03:02:24;7.05;;;6.30;;
6564;SDS011;3316;44.118;27.258;2023-07-31T03:04:50;7.50;;;6.50;;
6564;SDS011;3316;44.118;27.258;2023-07-31T03:07:15;11.38;;;6.32;;
6564;SDS011;3316;44.118;27.258;2023-07-31T03:09:41;8.40;;;5.50;;
6564;SDS011;3316;44.118;27.258;2023-07-31T03:12:07;9.50;;;6.32;;
6564;SDS011;3316;44.118;27.258;2023-07-31T03:14:33;6.22;;;5.53;;
6564;SDS011;3316;44.118;27.258;2023-07-31T03:16:59;8.85;;;5.88;;
6564;SDS011;3316;44.118;27.258;2023-07-31T03:19:24;6.70;;;5.68;;
6564;SDS011;3316;44.118;27.258;2023-07-31T03:21:50;6.65;;;5.95;;
6564;SDS011;3316;44.118;27.258;2023-07-31T03:24:15;6.82;;;6.13;;
6564;SDS011;3316;44.118;27.258;2023-07-31T03:26:41;8.63;;;5.80;;
6564;SDS011;3316;44.118;27.258;2023-07-31T03:29:06;8.32;;;5.80;;
6564;SDS011;3316;44.118;27.258;2023-07-31T03:31:32;6.88;;;5.65;;
6564;SDS011;3316;44.118;27.258;2023-07-31T03:33:58;6.65;;;5.70;;
6564;SDS011;3316;44.118;27.258;2023-07-31T03:36:24;5.78;;;5.18;;
6564;SDS011;3316;44.118;27.258;2023-07-31T03:38:50;7.07;;;5.43;;
6564;SDS011;3316;44.118;27.258;2023-07-31T03:41:16;8.35;;;5.45;;
6564;SDS011;3316;44.118;27.258;2023-07-31T03:43:42;5.63;;;5.03;;
6564;SDS011;3316;44.118;27.258;2023-07-31T03:46:07;6.45;;;5.03;;
6564;SDS011;3316;44.118;27.258;2023-07-31T03:48:33;8.18;;;5.68;;
6564;SDS011;3316;44.118;27.258;2023-07-31T03:50:58;10.18;;;5.03;;
6564;SDS011;3316;44.118;27.258;2023-07-31T03:53:23;6.30;;;5.70;;
6564;SDS011;3316;44.118;27.258;2023-07-31T03:55:49;14.27;;;5.72;;
6564;SDS011;3316;44.118;27.258;2023-07-31T03:58:14;10.13;;;5.88;;
6564;SDS011;3316;44.118;27.258;2023-07-31T04:00:40;10.80;;;5.55;;
6564;SDS011;3316;44.118;27.258;2023-07-31T04:03:05;7.50;;;5.85;;
6564;SDS011;3316;44.118;27.258;2023-07-31T04:05:31;8.45;;;5.68;;
6564;SDS011;3316;44.118;27.258;2023-07-31T04:07:58;6.00;;;5.40;;
6564;SDS011;3316;44.118;27.258;2023-07-31T04:10:23;5.88;;;5.15;;
6564;SDS011;3316;44.118;27.258;2023-07-31T04:12:49;9.02;;;5.70;;
6564;SDS011;3316;44.118;27.258;2023-07-31T04:15:14;7.70;;;5.75;;
6564;SDS011;3316;44.118;27.258;2023-07-31T04:17:40;7.50;;;6.20;;
6564;SDS011;3316;44.118;27.258;2023-07-31T04:20:05;7.30;;;6.22;;
6564;SDS011;3316;44.118;27.258;2023-07-31T04:22:31;7.93;;;6.32;;
6564;SDS011;3316;44.118;27.258;2023-07-31T04:24:57;23.23;;;11.43;;
6564;SDS011;3316;44.118;27.258;2023-07-31T04:27:22;17.35;;;7.72;;
6564;SDS011;3316;44.118;27.258;2023-07-31T04:29:48;16.98;;;7.05;;
6564;SDS011;3316;44.118;27.258;2023-07-31T04:32:13;7.10;;;6.18;;
6564;SDS011;3316;44.118;27.258;2023-07-31T04:34:41;22.23;;;7.70;;
6564;SDS011;3316;44.118;27.258;2023-07-31T04:37:07;9.43;;;7.15;;
6564;SDS011;3316;44.118;27.258;2023-07-31T04:39:32;18.80;;;8.20;;
6564;SDS011;3316;44.118;27.258;2023-07-31T04:41:58;10.70;;;7.45;;
6564;SDS011;3316;44.118;27.258;2023-07-31T04:44:23;11.20;;;9.00;;
6564;SDS011;3316;44.118;27.258;2023-07-31T04:46:49;11.52;;;8.43;;
6564;SDS011;3316;44.118;27.258;2023-07-31T04:49:14;12.05;;;9.15;;
6564;SDS011;3316;44.118;27.258;2023-07-31T04:51:40;12.95;;;9.98;;
6564;SDS011;3316;44.118;27.258;2023-07-31T04:54:05;12.52;;;9.38;;
6564;SDS011;3316;44.118;27.258;2023-07-31T04:56:30;12.32;;;9.20;;
6564;SDS011;3316;44.118;27.258;2023-07-31T04:58:56;11.15;;;9.50;;
6564;SDS011;3316;44.118;27.258;2023-07-31T05:01:21;11.25;;;9.63;;
6564;SDS011;3316;44.118;27.258;2023-07-31T05:03:47;32.35;;;11.68;;
6564;SDS011;3316;44.118;27.258;2023-07-31T05:06:12;33.45;;;11.80;;
6564;SDS011;3316;44.118;27.258;2023-07-31T05:08:40;11.93;;;9.65;;
6564;SDS011;3316;44.118;27.258;2023-07-31T05:11:19;15.90;;;10.40;;
6564;SDS011;3316;44.118;27.258;2023-07-31T05:13:45;12.00;;;10.73;;
6564;SDS011;3316;44.118;27.258;2023-07-31T05:16:10;13.23;;;10.13;;
6564;SDS011;3316;44.118;27.258;2023-07-31T05:18:36;14.05;;;11.20;;
6564;SDS011;3316;44.118;27.258;2023-07-31T05:21:01;16.38;;;9.13;;
6564;SDS011;3316;44.118;27.258;2023-07-31T05:23:27;9.77;;;8.77;;
6564;SDS011;3316;44.118;27.258;2023-07-31T05:25:52;12.00;;;9.45;;
6564;SDS011;3316;44.118;27.258;2023-07-31T05:28:17;13.65;;;8.23;;
6564;SDS011;3316;44.118;27.258;2023-07-31T05:30:43;8.90;;;7.05;;
6564;SDS011;3316;44.118;27.258;2023-07-31T05:33:08;7.50;;;6.47;;
6564;SDS011;3316;44.118;27.258;2023-07-31T05:35:34;10.43;;;8.35;;
6564;SDS011;3316;44.118;27.258;2023-07-31T05:37:59;10.23;;;8.25;;
6564;SDS011;3316;44.118;27.258;2023-07-31T05:40:25;9.43;;;7.30;;
6564;SDS011;3316;44.118;27.258;2023-07-31T05:42:50;12.10;;;7.53;;
6564;SDS011;3316;44.118;27.258;2023-07-31T05:45:16;16.92;;;9.32;;
6564;SDS011;3316;44.118;27.258;2023-07-31T05:47:41;13.75;;;9.43;;
6564;SDS011;3316;44.118;27.258;2023-07-31T05:50:07;16.48;;;9.95;;
6564;SDS011;3316;44.118;27.258;2023-07-31T05:52:32;21.05;;;11.65;;
6564;SDS011;3316;44.118;27.258;2023-07-31T05:54:58;13.70;;;10.60;;
6564;SDS011;3316;44.118;27.258;2023-07-31T05:57:23;25.63;;;14.38;;
6564;SDS011;3316;44.118;27.258;2023-07-31T05:59:49;36.28;;;13.23;;
6564;SDS011;3316;44.118;27.258;2023-07-31T06:02:14;11.32;;;9.75;;
6564;SDS011;3316;44.118;27.258;2023-07-31T06:04:40;14.70;;;10.50;;
6564;SDS011;3316;44.118;27.258;2023-07-31T06:07:05;13.60;;;10.20;;
6564;SDS011;3316;44.118;27.258;2023-07-31T06:09:31;19.15;;;12.73;;
6564;SDS011;3316;44.118;27.258;2023-07-31T06:11:56;28.25;;;15.27;;
6564;SDS011;3316;44.118;27.258;2023-07-31T06:14:22;16.42;;;9.98;;
6564;SDS011;3316;44.118;27.258;2023-07-31T06:16:47;14.55;;;10.02;;
6564;SDS011;3316;44.118;27.258;2023-07-31T06:19:13;14.23;;;8.27;;
6564;SDS011;3316;44.118;27.258;2023-07-31T06:21:39;11.45;;;7.82;;
6564;SDS011;3316;44.118;27.258;2023-07-31T06:24:05;17.92;;;9.55;;
6564;SDS011;3316;44.118;27.258;2023-07-31T06:26:31;11.25;;;7.00;;
6564;SDS011;3316;44.118;27.258;2023-07-31T06:28:56;9.48;;;6.25;;
6564;SDS011;3316;44.118;27.258;2023-07-31T06:31:22;8.45;;;5.78;;
6564;SDS011;3316;44.118;27.258;2023-07-31T06:33:51;7.53;;;4.68;;
6564;SDS011;3316;44.118;27.258;2023-07-31T06:36:17;9.35;;;7.05;;
6564;SDS011;3316;44.118;27.258;2023-07-31T06:38:43;11.75;;;8.27;;
6564;SDS011;3316;44.118;27.258;2023-07-31T06:41:08;12.82;;;7.22;;
6564;SDS011;3316;44.118;27.258;2023-07-31T06:43:35;22.25;;;13.50;;
6564;SDS011;3316;44.118;27.258;2023-07-31T06:46:07;33.83;;;21.52;;
6564;SDS011;3316;44.118;27.258;2023-07-31T06:48:33;21.45;;;11.90;;
6564;SDS011;3316;44.118;27.258;2023-07-31T06:50:59;7.88;;;5.47;;
6564;SDS011;3316;44.118;27.258;2023-07-31T06:53:25;12.98;;;8.77;;
6564;SDS011;3316;44.118;27.258;2023-07-31T06:55:51;19.85;;;11.48;;
6564;SDS011;3316;44.118;27.258;2023-07-31T06:58:17;25.80;;;13.18;;
6564;SDS011;3316;44.118;27.258;2023-07-31T07:00:42;58.25;;;29.02;;
6564;SDS011;3316;44.118;27.258;2023-07-31T07:03:08;20.25;;;12.13;;
6564;SDS011;3316;44.118;27.258;2023-07-31T07:05:34;8.70;;;5.70;;
6564;SDS011;3316;44.118;27.258;2023-07-31T07:07:59;22.08;;;12.70;;
6564;SDS011;3316;44.118;27.258;2023-07-31T07:10:25;10.32;;;6.68;;
6564;SDS011;3316;44.118;27.258;2023-07-31T07:12:50;11.18;;;6.93;;
6564;SDS011;3316;44.118;27.258;2023-07-31T07:15:16;12.38;;;7.60;;
6564;SDS011;3316;44.118;27.258;2023-07-31T07:17:41;9.10;;;6.82;;
6564;SDS011;3316;44.118;27.258;2023-07-31T07:20:07;7.97;;;4.45;;
6564;SDS011;3316;44.118;27.258;2023-07-31T07:22:33;6.40;;;4.45;;
6564;SDS011;3316;44.118;27.258;2023-07-31T07:24:58;8.48;;;5.15;;
6564;SDS011;3316;44.118;27.258;2023-07-31T07:27:24;8.10;;;4.97;;
6564;SDS011;3316;44.118;27.258;2023-07-31T07:29:50;10.45;;;7.00;;
6564;SDS011;3316;44.118;27.258;2023-07-31T07:32:17;14.25;;;6.93;;
6564;SDS011;3316;44.118;27.258;2023-07-31T07:34:43;36.08;;;18.92;;
6564;SDS011;3316;44.118;27.258;2023-07-31T07:37:08;16.85;;;10.05;;
6564;SDS011;3316;44.118;27.258;2023-07-31T07:39:34;43.85;;;19.85;;
6564;SDS011;3316;44.118;27.258;2023-07-31T07:42:00;16.35;;;8.75;;
6564;SDS011;3316;44.118;27.258;2023-07-31T07:44:25;16.52;;;6.18;;
6564;SDS011;3316;44.118;27.258;2023-07-31T07:46:51;14.63;;;7.90;;
6564;SDS011;3316;44.118;27.258;2023-07-31T07:49:17;11.68;;;5.93;;
6564;SDS011;3316;44.118;27.258;2023-07-31T07:51:42;14.25;;;5.70;;
6564;SDS011;3316;44.118;27.258;2023-07-31T07:54:08;9.73;;;5.88;;
6564;SDS011;3316;44.118;27.258;2023-07-31T07:56:34;7.75;;;5.50;;
6564;SDS011;3316;44.118;27.258;2023-07-31T07:59:01;9.70;;;5.00;;
6564;SDS011;3316;44.118;27.258;2023-07-31T08:01:26;11.10;;;6.05;;
6564;SDS011;3316;44.118;27.258;2023-07-31T08:03:52;13.70;;;6.88;;
6564;SDS011;3316;44.118;27.258;2023-07-31T08:06:17;21.50;;;11.57;;
6564;SDS011;3316;44.118;27.258;2023-07-31T08:08:43;26.10;;;7.82;;
6564;SDS011;3316;44.118;27.258;2023-07-31T08:11:08;20.73;;;10.90;;
6564;SDS011;3316;44.118;27.258;2023-07-31T08:13:34;12.93;;;7.53;;
6564;SDS011;3316;44.118;27.258;2023-07-31T08:16:01;11.55;;;6.18;;
6564;SDS011;3316;44.118;27.258;2023-07-31T08:18:27;75.85;;;31.20;;
6564;SDS011;3316;44.118;27.258;2023-07-31T08:20:52;25.10;;;10.52;;
6564;SDS011;3316;44.118;27.258;2023-07-31T08:23:18;23.98;;;11.10;;
6564;SDS011;3316;44.118;27.258;2023-07-31T08:25:44;9.27;;;6.28;;
6564;SDS011;3316;44.118;27.258;2023-07-31T08:28:10;11.73;;;6.82;;
6564;SDS011;3316;44.118;27.258;2023-07-31T08:30:35;15.45;;;6.80;;
6564;SDS011;3316;44.118;27.258;2023-07-31T08:33:01;25.42;;;15.82;;
6564;SDS011;3316;44.118;27.258;2023-07-31T08:35:26;8.40;;;6.95;;
6564;SDS011;3316;44.118;27.258;2023-07-31T08:37:55;24.08;;;12.32;;
6564;SDS011;3316;44.118;27.258;2023-07-31T08:40:20;24.55;;;14.02;;
6564;SDS011;3316;44.118;27.258;2023-07-31T08:42:49;25.63;;;11.70;;
6564;SDS011;3316;44.118;27.258;2023-07-31T08:45:17;18.10;;;7.35;;
6564;SDS011;3316;44.118;27.258;2023-07-31T08:47:48;25.15;;;12.35;;
6564;SDS011;3316;44.118;27.258;2023-07-31T08:50:15;43.10;;;23.13;;
6564;SDS011;3316;44.118;27.258;2023-07-31T08:52:42;44.72;;;22.25;;
6564;SDS011;3316;44.118;27.258;2023-07-31T08:55:08;32.10;;;17.55;;
6564;SDS011;3316;44.118;27.258;2023-07-31T08:57:34;25.10;;;13.05;;
6564;SDS011;3316;44.118;27.258;2023-07-31T09:00:02;11.93;;;6.07;;
6564;SDS011;3316;44.118;27.258;2023-07-31T09:02:37;16.20;;;10.50;;
6564;SDS011;3316;44.118;27.258;2023-07-31T09:05:10;48.85;;;21.58;;
6564;SDS011;3316;44.118;27.258;2023-07-31T09:07:36;13.13;;;8.32;;
6564;SDS011;3316;44.118;27.258;2023-07-31T09:10:03;13.70;;;8.25;;
6564;SDS011;3316;44.118;27.258;2023-07-31T09:12:29;22.08;;;9.98;;
6564;SDS011;3316;44.118;27.258;2023-07-31T09:14:58;10.20;;;6.60;;
6564;SDS011;3316;44.118;27.258;2023-07-31T09:17:32;13.07;;;8.60;;
6564;SDS011;3316;44.118;27.258;2023-07-31T09:22:43;14.77;;;9.02;;
6564;SDS011;3316;44.118;27.258;2023-07-31T09:25:18;25.15;;;13.93;;
6564;SDS011;3316;44.118;27.258;2023-07-31T09:28:05;11.90;;;6.75;;
6564;SDS011;3316;44.118;27.258;2023-07-31T09:30:43;16.10;;;9.15;;
6564;SDS011;3316;44.118;27.258;2023-07-31T09:33:17;13.20;;;8.75;;
6564;SDS011;3316;44.118;27.258;2023-07-31T09:35:44;27.35;;;14.27;;
6564;SDS011;3316;44.118;27.258;2023-07-31T09:38:10;32.90;;;15.82;;
6564;SDS011;3316;44.118;27.258;2023-07-31T09:40:38;18.45;;;10.38;;
6564;SDS011;3316;44.118;27.258;2023-07-31T09:43:08;18.08;;;10.15;;
6564;SDS011;3316;44.118;27.258;2023-07-31T09:45:36;19.60;;;7.65;;
6564;SDS011;3316;44.118;27.258;2023-07-31T09:48:03;17.15;;;9.55;;
6564;SDS011;3316;44.118;27.258;2023-07-31T09:50:34;27.08;;;8.35;;
6564;SDS011;3316;44.118;27.258;2023-07-31T09:53:03;27.17;;;14.07;;
6564;SDS011;3316;44.118;27.258;2023-07-31T09:55:29;21.88;;;11.32;;
6564;SDS011;3316;44.118;27.258;2023-07-31T09:57:55;13.80;;;9.57;;
6564;SDS011;3316;44.118;27.258;2023-07-31T10:00:22;24.00;;;12.38;;
6564;SDS011;3316;44.118;27.258;2023-07-31T10:02:50;54.00;;;26.88;;
6564;SDS011;3316;44.118;27.258;2023-07-31T10:05:16;54.42;;;20.77;;
6564;SDS011;3316;44.118;27.258;2023-07-31T10:08:03;45.05;;;17.13;;
6564;SDS011;3316;44.118;27.258;2023-07-31T10:10:28;44.05;;;23.08;;
6564;SDS011;3316;44.118;27.258;2023-07-31T10:12:54;23.10;;;12.18;;
6564;SDS011;3316;44.118;27.258;2023-07-31T10:15:21;26.10;;;13.82;;
6564;SDS011;3316;44.118;27.258;2023-07-31T10:17:47;20.23;;;12.50;;
6564;SDS011;3316;44.118;27.258;2023-07-31T10:20:14;10.70;;;6.80;;
6564;SDS011;3316;44.118;27.258;2023-07-31T10:22:44;36.10;;;18.15;;
6564;SDS011;3316;44.118;27.258;2023-07-31T10:25:13;26.80;;;13.45;;
6564;SDS011;3316;44.118;27.258;2023-07-31T10:27:40;16.88;;;10.25;;
6564;SDS011;3316;44.118;27.258;2023-07-31T10:30:06;26.48;;;14.23;;
6564;SDS011;3316;44.118;27.258;2023-07-31T10:32:38;47.30;;;21.52;;
6564;SDS011;3316;44.118;27.258;2023-07-31T10:35:05;21.38;;;10.80;;
6564;SDS011;3316;44.118;27.258;2023-07-31T10:37:39;44.42;;;21.17;;
6564;SDS011;3316;44.118;27.258;2023-07-31T10:40:16;16.63;;;9.65;;
6564;SDS011;3316;44.118;27.258;2023-07-31T10:45:25;23.48;;;13.55;;
6564;SDS011;3316;44.118;27.258;2023-07-31T10:48:00;31.33;;;17.35;;
6564;SDS011;3316;44.118;27.258;2023-07-31T10:50:27;22.95;;;12.60;;
6564;SDS011;3316;44.118;27.258;2023-07-31T10:52:54;19.38;;;9.90;;
6564;SDS011;3316;44.118;27.258;2023-07-31T10:55:31;21.80;;;12.13;;
6564;SDS011;3316;44.118;27.258;2023-07-31T10:58:11;15.85;;;8.82;;
6564;SDS011;3316;44.118;27.258;2023-07-31T11:00:41;24.50;;;14.20;;
6564;SDS011;3316;44.118;27.258;2023-07-31T11:03:09;14.30;;;9.38;;
6564;SDS011;3316;44.118;27.258;2023-07-31T11:05:43;47.25;;;25.60;;
6564;SDS011;3316;44.118;27.258;2023-07-31T11:08:19;6.95;;;6.18;;
6564;SDS011;3316;44.118;27.258;2023-07-31T11:10:50;13.57;;;9.20;;
6564;SDS011;3316;44.118;27.258;2023-07-31T11:13:29;22.40;;;14.77;;
6564;SDS011;3316;44.118;27.258;2023-07-31T11:15:59;26.23;;;13.18;;
6564;SDS011;3316;44.118;27.258;2023-07-31T11:18:28;24.55;;;13.50;;
6564;SDS011;3316;44.118;27.258;2023-07-31T11:20:53;51.08;;;25.80;;
6564;SDS011;3316;44.118;27.258;2023-07-31T11:23:19;67.97;;;34.30;;
6564;SDS011;3316;44.118;27.258;2023-07-31T11:25:45;27.60;;;11.00;;
6564;SDS011;3316;44.118;27.258;2023-07-31T11:28:12;9.82;;;7.13;;
6564;SDS011;3316;44.118;27.258;2023-07-31T11:30:39;22.73;;;13.15;;
6564;SDS011;3316;44.118;27.258;2023-07-31T11:33:06;23.38;;;14.55;;
6564;SDS011;3316;44.118;27.258;2023-07-31T11:35:33;10.68;;;6.60;;
6564;SDS011;3316;44.118;27.258;2023-07-31T11:38:00;10.80;;;7.07;;
6564;SDS011;3316;44.118;27.258;2023-07-31T11:40:26;11.15;;;5.80;;
6564;SDS011;3316;44.118;27.258;2023-07-31T11:42:58;17.88;;;11.45;;
6564;SDS011;3316;44.118;27.258;2023-07-31T11:45:28;24.13;;;12.90;;
6564;SDS011;3316;44.118;27.258;2023-07-31T11:47:55;7.13;;;6.07;;
6564;SDS011;3316;44.118;27.258;2023-07-31T11:50:22;7.88;;;5.57;;
6564;SDS011;3316;44.118;27.258;2023-07-31T11:52:50;17.33;;;8.15;;
6564;SDS011;3316;44.118;27.258;2023-07-31T11:55:20;18.30;;;9.05;;
6564;SDS011;3316;44.118;27.258;2023-07-31T11:57:47;14.95;;;5.25;;
6564;SDS011;3316;44.118;27.258;2023-07-31T12:00:12;29.90;;;10.57;;
6564;SDS011;3316;44.118;27.258;2023-07-31T12:02:40;10.95;;;6.90;;
6564;SDS011;3316;44.118;27.258;2023-07-31T12:05:14;9.23;;;5.30;;
6564;SDS011;3316;44.118;27.258;2023-07-31T12:07:47;13.27;;;6.82;;
6564;SDS011;3316;44.118;27.258;2023-07-31T12:10:27;16.00;;;8.35;;
6564;SDS011;3316;44.118;27.258;2023-07-31T12:15:41;7.15;;;4.93;;
6564;SDS011;3316;44.118;27.258;2023-07-31T12:18:09;7.28;;;5.50;;
6564;SDS011;3316;44.118;27.258;2023-07-31T12:23:13;7.72;;;5.50;;
6564;SDS011;3316;44.118;27.258;2023-07-31T12:28:26;15.55;;;7.40;;
6564;SDS011;3316;44.118;27.258;2023-07-31T12:30:52;9.20;;;5.55;;
6564;SDS011;3316;44.118;27.258;2023-07-31T12:33:22;7.13;;;4.70;;
6564;SDS011;3316;44.118;27.258;2023-07-31T12:35:47;6.30;;;4.78;;
6564;SDS011;3316;44.118;27.258;2023-07-31T12:38:13;18.10;;;9.40;;
6564;SDS011;3316;44.118;27.258;2023-07-31T12:40:39;8.82;;;6.03;;
6564;SDS011;3316;44.118;27.258;2023-07-31T12:43:06;6.72;;;5.47;;
6564;SDS011;3316;44.118;27.258;2023-07-31T12:45:32;12.75;;;8.00;;
6564;SDS011;3316;44.118;27.258;2023-07-31T12:47:58;12.80;;;7.57;;
6564;SDS011;3316;44.118;27.258;2023-07-31T12:50:24;6.20;;;4.22;;
6564;SDS011;3316;44.118;27.258;2023-07-31T12:52:50;5.70;;;3.88;;
6564;SDS011;3316;44.118;27.258;2023-07-31T12:55:16;5.68;;;4.10;;
6564;SDS011;3316;44.118;27.258;2023-07-31T12:57:43;12.75;;;7.45;;
6564;SDS011;3316;44.118;27.258;2023-07-31T13:00:08;5.13;;;4.22;;
6564;SDS011;3316;44.118;27.258;2023-07-31T13:02:34;7.85;;;4.45;;
6564;SDS011;3316;44.118;27.258;2023-07-31T13:05:00;7.95;;;4.22;;
6564;SDS011;3316;44.118;27.258;2023-07-31T13:07:26;13.73;;;7.78;;
6564;SDS011;3316;44.118;27.258;2023-07-31T13:09:51;18.42;;;6.03;;
6564;SDS011;3316;44.118;27.258;2023-07-31T13:12:17;12.13;;;6.45;;
6564;SDS011;3316;44.118;27.258;2023-07-31T13:14:43;7.85;;;5.38;;
6564;SDS011;3316;44.118;27.258;2023-07-31T13:17:08;4.63;;;3.53;;
6564;SDS011;3316;44.118;27.258;2023-07-31T13:19:34;7.30;;;5.25;;
6564;SDS011;3316;44.118;27.258;2023-07-31T13:21:59;11.07;;;6.07;;
6564;SDS011;3316;44.118;27.258;2023-07-31T13:24:25;6.65;;;4.13;;
6564;SDS011;3316;44.118;27.258;2023-07-31T13:26:50;8.25;;;3.95;;
6564;SDS011;3316;44.118;27.258;2023-07-31T13:29:16;9.50;;;4.15;;
6564;SDS011;3316;44.118;27.258;2023-07-31T13:31:41;17.17;;;4.80;;
6564;SDS011;3316;44.118;27.258;2023-07-31T13:34:07;26.58;;;17.85;;
6564;SDS011;3316;44.118;27.258;2023-07-31T13:36:32;16.92;;;10.20;;
6564;SDS011;3316;44.118;27.258;2023-07-31T13:38:59;6.97;;;5.65;;
6564;SDS011;3316;44.118;27.258;2023-07-31T13:41:25;7.20;;;4.60;;
6564;SDS011;3316;44.118;27.258;2023-07-31T13:43:50;7.72;;;3.58;;
6564;SDS011;3316;44.118;27.258;2023-07-31T13:46:16;4.65;;;3.10;;
6564;SDS011;3316;44.118;27.258;2023-07-31T13:48:41;10.82;;;8.30;;
6564;SDS011;3316;44.118;27.258;2023-07-31T13:51:06;21.02;;;13.13;;
6564;SDS011;3316;44.118;27.258;2023-07-31T13:53:32;4.32;;;3.92;;
6564;SDS011;3316;44.118;27.258;2023-07-31T13:55:57;3.78;;;3.38;;
6564;SDS011;3316;44.118;27.258;2023-07-31T13:58:23;5.93;;;3.22;;
6564;SDS011;3316;44.118;27.258;2023-07-31T14:00:48;5.45;;;3.83;;
6564;SDS011;3316;44.118;27.258;2023-07-31T14:03:13;6.38;;;4.00;;
6564;SDS011;3316;44.118;27.258;2023-07-31T14:05:39;4.78;;;3.72;;
6564;SDS011;3316;44.118;27.258;2023-07-31T14:08:04;5.57;;;3.55;;
6564;SDS011;3316;44.118;27.258;2023-07-31T14:10:30;3.60;;;3.20;;
6564;SDS011;3316;44.118;27.258;2023-07-31T14:12:56;5.53;;;3.70;;
6564;SDS011;3316;44.118;27.258;2023-07-31T14:15:21;4.18;;;3.42;;
6564;SDS011;3316;44.118;27.258;2023-07-31T14:17:47;6.07;;;4.05;;
6564;SDS011;3316;44.118;27.258;2023-07-31T14:20:12;9.50;;;3.35;;
6564;SDS011;3316;44.118;27.258;2023-07-31T14:22:38;6.78;;;3.40;;
6564;SDS011;3316;44.118;27.258;2023-07-31T14:25:04;16.58;;;3.55;;
6564;SDS011;3316;44.118;27.258;2023-07-31T14:27:30;4.40;;;3.80;;
6564;SDS011;3316;44.118;27.258;2023-07-31T14:29:55;9.80;;;3.97;;
6564;SDS011;3316;44.118;27.258;2023-07-31T14:32:21;6.50;;;3.60;;
6564;SDS011;3316;44.118;27.258;2023-07-31T14:34:48;4.85;;;3.60;;
6564;SDS011;3316;44.118;27.258;2023-07-31T14:37:14;3.20;;;2.90;;
6564;SDS011;3316;44.118;27.258;2023-07-31T14:39:39;6.20;;;3.42;;
6564;SDS011;3316;44.118;27.258;2023-07-31T14:42:05;5.07;;;4.00;;
6564;SDS011;3316;44.118;27.258;2023-07-31T14:44:30;3.70;;;3.38;;
6564;SDS011;3316;44.118;27.258;2023-07-31T14:46:56;4.72;;;3.95;;
6564;SDS011;3316;44.118;27.258;2023-07-31T14:49:21;6.03;;;3.65;;
6564;SDS011;3316;44.118;27.258;2023-07-31T14:51:47;5.00;;;3.28;;
6564;SDS011;3316;44.118;27.258;2023-07-31T14:54:12;6.53;;;3.40;;
6564;SDS011;3316;44.118;27.258;2023-07-31T14:56:37;5.28;;;3.38;;
6564;SDS011;3316;44.118;27.258;2023-07-31T14:59:03;4.47;;;3.50;;
6564;SDS011;3316;44.118;27.258;2023-07-31T15:01:28;6.63;;;3.80;;
6564;SDS011;3316;44.118;27.258;2023-07-31T15:03:54;4.50;;;3.25;;
6564;SDS011;3316;44.118;27.258;2023-07-31T15:06:19;7.60;;;3.15;;
6564;SDS011;3316;44.118;27.258;2023-07-31T15:08:44;7.15;;;3.53;;